sensor_id;sensor_type;location;lat;lon;timestamp;temperature;humidity
20977;DHT22;10647;51.016;3.720;2022-09-24T00:01:38;15.60;99.90
20977;DHT22;10647;51.016;3.720;2022-09-24T00:04:12;15.60;99.90
20977;DHT22;10647;51.016;3.720;2022-09-24T00:06:47;15.60;99.90
20977;DHT22;10647;51.016;3.720;2022-09-24T00:09:18;15.60;99.90
20977;DHT22;10647;51.016;3.720;2022-09-24T00:11:50;15.60;99.90
20977;DHT22;10647;51.016;3.720;2022-09-24T00:14:31;15.60;99.90
20977;DHT22;10647;51.016;3.720;2022-09-24T00:17:02;15.60;99.90
20977;DHT22;10647;51.016;3.720;2022-09-24T00:19:29;15.50;99.90
20977;DHT22;10647;51.016;3.720;2022-09-24T00:22:00;15.60;99.90
20977;DHT22;10647;51.016;3.720;2022-09-24T00:24:27;15.60;99.90
20977;DHT22;10647;51.016;3.720;2022-09-24T00:27:15;15.60;99.90
20977;DHT22;10647;51.016;3.720;2022-09-24T00:29:43;15.70;99.90
20977;DHT22;10647;51.016;3.720;2022-09-24T00:32:10;15.60;99.90
20977;DHT22;10647;51.016;3.720;2022-09-24T00:34:41;15.70;99.90
20977;DHT22;10647;51.016;3.720;2022-09-24T00:37:09;15.70;99.90
20977;DHT22;10647;51.016;3.720;2022-09-24T00:39:39;15.60;99.90
20977;DHT22;10647;51.016;3.720;2022-09-24T00:42:13;15.60;99.90
20977;DHT22;10647;51.016;3.720;2022-09-24T00:44:49;15.60;99.90
20977;DHT22;10647;51.016;3.720;2022-09-24T00:52:55;15.60;99.90
20977;DHT22;10647;51.016;3.720;2022-09-24T00:55:27;15.60;99.90
20977;DHT22;10647;51.016;3.720;2022-09-24T00:58:03;15.60;99.90
20977;DHT22;10647;51.016;3.720;2022-09-24T01:00:56;15.60;99.90
20977;DHT22;10647;51.016;3.720;2022-09-24T01:03:29;15.50;99.90
20977;DHT22;10647;51.016;3.720;2022-09-24T01:06:01;15.50;99.90
20977;DHT22;10647;51.016;3.720;2022-09-24T01:08:29;15.50;99.90
20977;DHT22;10647;51.016;3.720;2022-09-24T01:11:20;15.60;99.90
20977;DHT22;10647;51.016;3.720;2022-09-24T01:17:29;15.60;99.90
20977;DHT22;10647;51.016;3.720;2022-09-24T01:20:07;15.50;99.90
20977;DHT22;10647;51.016;3.720;2022-09-24T01:23:08;15.50;99.90
20977;DHT22;10647;51.016;3.720;2022-09-24T01:25:46;15.50;99.90
20977;DHT22;10647;51.016;3.720;2022-09-24T01:33:53;15.40;99.90
20977;DHT22;10647;51.016;3.720;2022-09-24T01:36:30;15.40;99.90
20977;DHT22;10647;51.016;3.720;2022-09-24T01:39:03;15.40;99.90
20977;DHT22;10647;51.016;3.720;2022-09-24T01:41:35;15.50;99.90
20977;DHT22;10647;51.016;3.720;2022-09-24T01:44:05;15.50;99.90
20977;DHT22;10647;51.016;3.720;2022-09-24T01:46:48;15.50;99.90
20977;DHT22;10647;51.016;3.720;2022-09-24T01:49:23;15.50;99.90
20977;DHT22;10647;51.016;3.720;2022-09-24T01:51:56;15.50;99.90
20977;DHT22;10647;51.016;3.720;2022-09-24T01:54:30;15.40;99.90
20977;DHT22;10647;51.016;3.720;2022-09-24T01:57:13;15.50;99.90
20977;DHT22;10647;51.016;3.720;2022-09-24T01:59:46;15.50;99.90
20977;DHT22;10647;51.016;3.720;2022-09-24T02:02:22;15.50;99.90
20977;DHT22;10647;51.016;3.720;2022-09-24T02:05:07;15.50;99.90
20977;DHT22;10647;51.016;3.720;2022-09-24T02:07:41;15.50;99.90
20977;DHT22;10647;51.016;3.720;2022-09-24T02:10:18;15.60;99.90
20977;DHT22;10647;51.016;3.720;2022-09-24T02:12:52;15.60;99.90
20977;DHT22;10647;51.016;3.720;2022-09-24T02:15:25;15.50;99.90
20977;DHT22;10647;51.016;3.720;2022-09-24T02:17:58;15.50;99.90
20977;DHT22;10647;51.016;3.720;2022-09-24T02:20:28;15.50;99.90
20977;DHT22;10647;51.016;3.720;2022-09-24T02:22:59;15.50;99.90
20977;DHT22;10647;51.016;3.720;2022-09-24T02:25:40;15.40;99.90
20977;DHT22;10647;51.016;3.720;2022-09-24T02:28:05;15.40;99.90
20977;DHT22;10647;51.016;3.720;2022-09-24T02:30:39;15.30;99.90
20977;DHT22;10647;51.016;3.720;2022-09-24T02:33:13;15.40;99.90
20977;DHT22;10647;51.016;3.720;2022-09-24T02:36:02;15.30;99.90
20977;DHT22;10647;51.016;3.720;2022-09-24T02:38:29;15.40;99.90
20977;DHT22;10647;51.016;3.720;2022-09-24T02:40:57;15.30;99.90
20977;DHT22;10647;51.016;3.720;2022-09-24T02:43:27;15.30;99.90
20977;DHT22;10647;51.016;3.720;2022-09-24T02:45:57;15.40;99.90
20977;DHT22;10647;51.016;3.720;2022-09-24T02:48:27;15.40;99.90
20977;DHT22;10647;51.016;3.720;2022-09-24T02:50:54;15.40;99.90
20977;DHT22;10647;51.016;3.720;2022-09-24T02:53:22;15.40;99.90
20977;DHT22;10647;51.016;3.720;2022-09-24T02:55:54;15.40;99.90
20977;DHT22;10647;51.016;3.720;2022-09-24T02:58:21;15.40;99.90
20977;DHT22;10647;51.016;3.720;2022-09-24T03:00:49;15.40;99.90
20977;DHT22;10647;51.016;3.720;2022-09-24T03:03:16;15.40;99.90
20977;DHT22;10647;51.016;3.720;2022-09-24T03:05:51;15.40;99.90
20977;DHT22;10647;51.016;3.720;2022-09-24T03:08:21;15.40;99.90
20977;DHT22;10647;51.016;3.720;2022-09-24T03:10:50;15.40;99.90
20977;DHT22;10647;51.016;3.720;2022-09-24T03:13:27;15.30;99.90
20977;DHT22;10647;51.016;3.720;2022-09-24T03:15:55;15.30;99.90
20977;DHT22;10647;51.016;3.720;2022-09-24T03:18:23;15.40;99.90
20977;DHT22;10647;51.016;3.720;2022-09-24T03:20:58;15.30;99.90
20977;DHT22;10647;51.016;3.720;2022-09-24T03:23:28;15.40;99.90
20977;DHT22;10647;51.016;3.720;2022-09-24T03:25:59;15.40;99.90
20977;DHT22;10647;51.016;3.720;2022-09-24T03:28:30;15.30;99.90
20977;DHT22;10647;51.016;3.720;2022-09-24T03:31:05;15.30;99.90
20977;DHT22;10647;51.016;3.720;2022-09-24T03:33:39;15.30;99.90
20977;DHT22;10647;51.016;3.720;2022-09-24T03:36:22;15.30;99.90
20977;DHT22;10647;51.016;3.720;2022-09-24T03:38:51;15.30;99.90
20977;DHT22;10647;51.016;3.720;2022-09-24T03:41:27;15.30;99.90
20977;DHT22;10647;51.016;3.720;2022-09-24T03:43:55;15.20;99.90
20977;DHT22;10647;51.016;3.720;2022-09-24T03:46:23;15.20;99.90
20977;DHT22;10647;51.016;3.720;2022-09-24T03:49:02;15.10;99.90
20977;DHT22;10647;51.016;3.720;2022-09-24T03:51:29;15.10;99.90
20977;DHT22;10647;51.016;3.720;2022-09-24T03:54:03;15.10;99.90
20977;DHT22;10647;51.016;3.720;2022-09-24T03:56:37;15.10;99.90
20977;DHT22;10647;51.016;3.720;2022-09-24T03:59:05;15.20;99.90
20977;DHT22;10647;51.016;3.720;2022-09-24T04:01:42;15.20;99.90
20977;DHT22;10647;51.016;3.720;2022-09-24T04:04:09;15.20;99.90
20977;DHT22;10647;51.016;3.720;2022-09-24T04:06:40;15.20;99.90
20977;DHT22;10647;51.016;3.720;2022-09-24T04:09:09;15.20;99.90
20977;DHT22;10647;51.016;3.720;2022-09-24T04:11:39;15.20;99.90
20977;DHT22;10647;51.016;3.720;2022-09-24T04:14:09;15.20;99.90
20977;DHT22;10647;51.016;3.720;2022-09-24T04:16:36;15.30;99.90
20977;DHT22;10647;51.016;3.720;2022-09-24T04:19:04;15.30;99.90
20977;DHT22;10647;51.016;3.720;2022-09-24T04:21:33;15.30;99.90
20977;DHT22;10647;51.016;3.720;2022-09-24T04:24:00;15.40;99.90
20977;DHT22;10647;51.016;3.720;2022-09-24T04:26:31;15.40;99.90
20977;DHT22;10647;51.016;3.720;2022-09-24T04:29:01;15.40;99.90
20977;DHT22;10647;51.016;3.720;2022-09-24T04:31:34;15.30;99.90
20977;DHT22;10647;51.016;3.720;2022-09-24T04:34:02;15.30;99.90
20977;DHT22;10647;51.016;3.720;2022-09-24T04:36:29;15.30;99.90
20977;DHT22;10647;51.016;3.720;2022-09-24T04:38:57;15.30;99.90
20977;DHT22;10647;51.016;3.720;2022-09-24T04:41:30;15.30;99.90
20977;DHT22;10647;51.016;3.720;2022-09-24T04:44:02;15.30;99.90
20977;DHT22;10647;51.016;3.720;2022-09-24T04:46:30;15.30;99.90
20977;DHT22;10647;51.016;3.720;2022-09-24T04:48:59;15.20;99.90
20977;DHT22;10647;51.016;3.720;2022-09-24T04:51:33;15.20;99.90
20977;DHT22;10647;51.016;3.720;2022-09-24T04:54:02;15.10;99.90
20977;DHT22;10647;51.016;3.720;2022-09-24T04:56:30;15.10;99.90
20977;DHT22;10647;51.016;3.720;2022-09-24T04:58:59;15.10;99.90
20977;DHT22;10647;51.016;3.720;2022-09-24T05:01:26;15.10;99.90
20977;DHT22;10647;51.016;3.720;2022-09-24T05:03:55;15.10;99.90
20977;DHT22;10647;51.016;3.720;2022-09-24T05:06:25;15.00;99.90
20977;DHT22;10647;51.016;3.720;2022-09-24T05:08:52;15.00;99.90
20977;DHT22;10647;51.016;3.720;2022-09-24T05:11:20;14.90;99.90
20977;DHT22;10647;51.016;3.720;2022-09-24T05:13:48;15.00;99.90
20977;DHT22;10647;51.016;3.720;2022-09-24T05:16:28;15.00;99.90
20977;DHT22;10647;51.016;3.720;2022-09-24T05:18:56;15.00;99.90
20977;DHT22;10647;51.016;3.720;2022-09-24T05:21:23;15.00;99.90
20977;DHT22;10647;51.016;3.720;2022-09-24T05:23:51;15.00;99.90
20977;DHT22;10647;51.016;3.720;2022-09-24T05:26:19;15.10;99.90
20977;DHT22;10647;51.016;3.720;2022-09-24T05:29:05;15.00;99.90
20977;DHT22;10647;51.016;3.720;2022-09-24T05:31:39;15.00;99.90
20977;DHT22;10647;51.016;3.720;2022-09-24T05:34:06;15.10;99.90
20977;DHT22;10647;51.016;3.720;2022-09-24T05:36:36;15.10;99.90
20977;DHT22;10647;51.016;3.720;2022-09-24T05:39:11;15.10;99.90
20977;DHT22;10647;51.016;3.720;2022-09-24T05:41:45;15.20;99.90
20977;DHT22;10647;51.016;3.720;2022-09-24T05:44:15;15.20;99.90
20977;DHT22;10647;51.016;3.720;2022-09-24T05:46:51;15.20;99.90
20977;DHT22;10647;51.016;3.720;2022-09-24T05:49:26;15.10;99.90
20977;DHT22;10647;51.016;3.720;2022-09-24T05:51:54;15.10;99.90
20977;DHT22;10647;51.016;3.720;2022-09-24T05:54:22;15.10;99.90
20977;DHT22;10647;51.016;3.720;2022-09-24T05:56:50;15.10;99.90
20977;DHT22;10647;51.016;3.720;2022-09-24T05:59:20;15.10;99.90
20977;DHT22;10647;51.016;3.720;2022-09-24T06:01:49;15.10;99.90
20977;DHT22;10647;51.016;3.720;2022-09-24T06:04:18;15.10;99.90
20977;DHT22;10647;51.016;3.720;2022-09-24T06:06:51;15.10;99.90
20977;DHT22;10647;51.016;3.720;2022-09-24T06:09:22;15.10;99.90
20977;DHT22;10647;51.016;3.720;2022-09-24T06:11:56;15.10;99.90
20977;DHT22;10647;51.016;3.720;2022-09-24T06:14:24;15.10;99.90
20977;DHT22;10647;51.016;3.720;2022-09-24T06:16:52;15.30;99.90
20977;DHT22;10647;51.016;3.720;2022-09-24T06:19:20;15.30;99.90
20977;DHT22;10647;51.016;3.720;2022-09-24T06:21:50;15.40;99.90
20977;DHT22;10647;51.016;3.720;2022-09-24T06:24:18;15.50;99.90
20977;DHT22;10647;51.016;3.720;2022-09-24T06:26:45;15.60;99.90
20977;DHT22;10647;51.016;3.720;2022-09-24T06:29:13;15.60;99.90
20977;DHT22;10647;51.016;3.720;2022-09-24T06:31:40;15.70;99.90
20977;DHT22;10647;51.016;3.720;2022-09-24T06:34:08;15.80;99.90
20977;DHT22;10647;51.016;3.720;2022-09-24T06:36:35;15.90;99.90
20977;DHT22;10647;51.016;3.720;2022-09-24T06:39:03;15.90;99.90
20977;DHT22;10647;51.016;3.720;2022-09-24T06:41:30;16.00;99.90
20977;DHT22;10647;51.016;3.720;2022-09-24T06:43:58;16.10;99.90
20977;DHT22;10647;51.016;3.720;2022-09-24T06:46:25;16.20;99.90
20977;DHT22;10647;51.016;3.720;2022-09-24T06:48:53;16.30;99.90
20977;DHT22;10647;51.016;3.720;2022-09-24T06:51:21;16.30;99.90
20977;DHT22;10647;51.016;3.720;2022-09-24T06:53:52;16.40;99.90
20977;DHT22;10647;51.016;3.720;2022-09-24T06:56:19;16.40;99.90
20977;DHT22;10647;51.016;3.720;2022-09-24T06:58:47;16.40;99.90
20977;DHT22;10647;51.016;3.720;2022-09-24T07:01:14;16.50;99.90
20977;DHT22;10647;51.016;3.720;2022-09-24T07:03:43;16.60;99.90
20977;DHT22;10647;51.016;3.720;2022-09-24T07:06:16;16.70;99.90
20977;DHT22;10647;51.016;3.720;2022-09-24T07:08:43;16.80;99.90
20977;DHT22;10647;51.016;3.720;2022-09-24T07:11:12;16.90;99.90
20977;DHT22;10647;51.016;3.720;2022-09-24T07:13:40;16.90;99.90
20977;DHT22;10647;51.016;3.720;2022-09-24T07:16:08;17.00;99.90
20977;DHT22;10647;51.016;3.720;2022-09-24T07:18:35;17.10;99.90
20977;DHT22;10647;51.016;3.720;2022-09-24T07:21:05;17.10;99.90
20977;DHT22;10647;51.016;3.720;2022-09-24T07:23:32;17.10;99.90
20977;DHT22;10647;51.016;3.720;2022-09-24T07:26:02;17.20;99.90
20977;DHT22;10647;51.016;3.720;2022-09-24T07:28:29;17.20;99.90
20977;DHT22;10647;51.016;3.720;2022-09-24T07:30:58;17.20;99.90
20977;DHT22;10647;51.016;3.720;2022-09-24T07:33:30;17.20;99.90
20977;DHT22;10647;51.016;3.720;2022-09-24T07:35:58;17.10;99.90
20977;DHT22;10647;51.016;3.720;2022-09-24T07:38:26;17.10;99.90
20977;DHT22;10647;51.016;3.720;2022-09-24T07:40:57;17.30;99.90
20977;DHT22;10647;51.016;3.720;2022-09-24T07:43:25;17.40;99.90
20977;DHT22;10647;51.016;3.720;2022-09-24T07:45:53;17.40;99.90
20977;DHT22;10647;51.016;3.720;2022-09-24T07:48:22;17.50;99.90
20977;DHT22;10647;51.016;3.720;2022-09-24T07:50:49;17.50;99.90
20977;DHT22;10647;51.016;3.720;2022-09-24T07:53:19;17.60;99.90
20977;DHT22;10647;51.016;3.720;2022-09-24T07:55:50;17.70;99.90
20977;DHT22;10647;51.016;3.720;2022-09-24T07:58:20;17.70;99.90
20977;DHT22;10647;51.016;3.720;2022-09-24T08:00:48;17.70;99.90
20977;DHT22;10647;51.016;3.720;2022-09-24T08:03:15;17.70;99.90
20977;DHT22;10647;51.016;3.720;2022-09-24T08:05:44;17.70;99.90
20977;DHT22;10647;51.016;3.720;2022-09-24T08:08:12;17.70;99.90
20977;DHT22;10647;51.016;3.720;2022-09-24T08:10:42;17.60;99.90
20977;DHT22;10647;51.016;3.720;2022-09-24T08:13:10;17.60;99.90
20977;DHT22;10647;51.016;3.720;2022-09-24T08:15:38;17.70;99.90
20977;DHT22;10647;51.016;3.720;2022-09-24T08:18:06;17.60;99.90
20977;DHT22;10647;51.016;3.720;2022-09-24T08:20:36;17.50;99.90
20977;DHT22;10647;51.016;3.720;2022-09-24T08:23:06;17.30;99.90
20977;DHT22;10647;51.016;3.720;2022-09-24T08:25:35;17.20;99.90
20977;DHT22;10647;51.016;3.720;2022-09-24T08:28:04;17.20;99.90
20977;DHT22;10647;51.016;3.720;2022-09-24T08:30:33;17.10;99.90
20977;DHT22;10647;51.016;3.720;2022-09-24T08:33:01;17.10;99.90
20977;DHT22;10647;51.016;3.720;2022-09-24T08:35:30;17.10;99.90
20977;DHT22;10647;51.016;3.720;2022-09-24T08:37:59;17.20;99.90
20977;DHT22;10647;51.016;3.720;2022-09-24T08:40:29;17.40;99.90
20977;DHT22;10647;51.016;3.720;2022-09-24T08:45:47;17.70;99.90
20977;DHT22;10647;51.016;3.720;2022-09-24T08:48:35;17.70;99.90
20977;DHT22;10647;51.016;3.720;2022-09-24T08:51:06;17.60;99.90
20977;DHT22;10647;51.016;3.720;2022-09-24T08:54:27;17.50;99.90
20977;DHT22;10647;51.016;3.720;2022-09-24T08:56:36;17.60;99.90
20977;DHT22;10647;51.016;3.720;2022-09-24T08:59:03;17.50;99.90
20977;DHT22;10647;51.016;3.720;2022-09-24T09:04:50;17.30;99.90
20977;DHT22;10647;51.016;3.720;2022-09-24T09:07:31;17.20;99.90
20977;DHT22;10647;51.016;3.720;2022-09-24T09:10:12;17.20;99.90
20977;DHT22;10647;51.016;3.720;2022-09-24T09:15:18;17.20;99.90
20977;DHT22;10647;51.016;3.720;2022-09-24T09:18:05;17.20;99.90
20977;DHT22;10647;51.016;3.720;2022-09-24T09:20:31;17.20;99.90
20977;DHT22;10647;51.016;3.720;2022-09-24T09:23:05;17.30;99.90
20977;DHT22;10647;51.016;3.720;2022-09-24T09:25:35;17.30;99.90
20977;DHT22;10647;51.016;3.720;2022-09-24T09:28:11;17.40;99.90
20977;DHT22;10647;51.016;3.720;2022-09-24T09:36:54;18.00;99.90
20977;DHT22;10647;51.016;3.720;2022-09-24T09:42:35;18.00;99.90
20977;DHT22;10647;51.016;3.720;2022-09-24T09:48:05;17.90;99.90
20977;DHT22;10647;51.016;3.720;2022-09-24T09:50:41;18.00;99.90
20977;DHT22;10647;51.016;3.720;2022-09-24T09:53:24;18.30;99.90
20977;DHT22;10647;51.016;3.720;2022-09-24T09:58:43;19.00;99.90
20977;DHT22;10647;51.016;3.720;2022-09-24T10:01:15;19.30;99.90
20977;DHT22;10647;51.016;3.720;2022-09-24T10:03:47;19.20;99.90
20977;DHT22;10647;51.016;3.720;2022-09-24T10:06:27;19.20;99.90
20977;DHT22;10647;51.016;3.720;2022-09-24T10:09:17;19.10;99.90
20977;DHT22;10647;51.016;3.720;2022-09-24T10:11:47;18.70;99.90
20977;DHT22;10647;51.016;3.720;2022-09-24T10:14:16;18.50;99.90
20977;DHT22;10647;51.016;3.720;2022-09-24T10:16:48;18.50;99.90
20977;DHT22;10647;51.016;3.720;2022-09-24T10:19:25;18.50;99.90
20977;DHT22;10647;51.016;3.720;2022-09-24T10:21:55;18.50;99.90
20977;DHT22;10647;51.016;3.720;2022-09-24T10:24:26;18.50;99.90
20977;DHT22;10647;51.016;3.720;2022-09-24T10:26:55;18.50;99.90
20977;DHT22;10647;51.016;3.720;2022-09-24T10:29:26;18.80;99.90
20977;DHT22;10647;51.016;3.720;2022-09-24T10:32:17;19.00;99.90
20977;DHT22;10647;51.016;3.720;2022-09-24T10:34:59;19.10;99.90
20977;DHT22;10647;51.016;3.720;2022-09-24T10:37:28;19.10;99.90
20977;DHT22;10647;51.016;3.720;2022-09-24T10:42:39;19.10;99.90
20977;DHT22;10647;51.016;3.720;2022-09-24T10:45:18;18.90;99.90
20977;DHT22;10647;51.016;3.720;2022-09-24T10:50:24;18.70;99.90
20977;DHT22;10647;51.016;3.720;2022-09-24T10:52:55;18.50;99.90
20977;DHT22;10647;51.016;3.720;2022-09-24T10:58:40;19.10;99.90
20977;DHT22;10647;51.016;3.720;2022-09-24T11:01:11;19.50;99.90
20977;DHT22;10647;51.016;3.720;2022-09-24T11:03:46;19.50;99.90
20977;DHT22;10647;51.016;3.720;2022-09-24T11:14:30;18.40;99.90
20977;DHT22;10647;51.016;3.720;2022-09-24T11:28:03;18.60;99.90
20977;DHT22;10647;51.016;3.720;2022-09-24T11:33:26;18.50;99.90
20977;DHT22;10647;51.016;3.720;2022-09-24T11:36:03;18.40;99.90
20977;DHT22;10647;51.016;3.720;2022-09-24T11:38:50;18.20;99.90
20977;DHT22;10647;51.016;3.720;2022-09-24T11:41:31;18.20;99.90
20977;DHT22;10647;51.016;3.720;2022-09-24T11:44:48;18.30;99.90
20977;DHT22;10647;51.016;3.720;2022-09-24T11:47:50;18.60;99.90
20977;DHT22;10647;51.016;3.720;2022-09-24T11:50:34;18.90;99.90
20977;DHT22;10647;51.016;3.720;2022-09-24T11:55:58;19.40;99.90
20977;DHT22;10647;51.016;3.720;2022-09-24T11:58:48;19.70;99.90
20977;DHT22;10647;51.016;3.720;2022-09-24T12:01:30;19.90;99.90
20977;DHT22;10647;51.016;3.720;2022-09-24T12:04:15;20.20;99.90
20977;DHT22;10647;51.016;3.720;2022-09-24T12:09:38;21.10;99.90
20977;DHT22;10647;51.016;3.720;2022-09-24T12:12:10;21.40;99.90
20977;DHT22;10647;51.016;3.720;2022-09-24T12:15:06;21.70;99.90
20977;DHT22;10647;51.016;3.720;2022-09-24T12:17:43;21.70;99.90
20977;DHT22;10647;51.016;3.720;2022-09-24T12:20:23;21.90;99.90
20977;DHT22;10647;51.016;3.720;2022-09-24T12:22:49;21.80;99.90
20977;DHT22;10647;51.016;3.720;2022-09-24T12:25:19;21.90;99.90
20977;DHT22;10647;51.016;3.720;2022-09-24T12:27:47;22.10;99.90
20977;DHT22;10647;51.016;3.720;2022-09-24T12:30:33;22.00;99.90
20977;DHT22;10647;51.016;3.720;2022-09-24T12:36:25;21.10;99.90
20977;DHT22;10647;51.016;3.720;2022-09-24T12:39:01;20.80;99.90
20977;DHT22;10647;51.016;3.720;2022-09-24T12:41:34;20.50;99.90
20977;DHT22;10647;51.016;3.720;2022-09-24T12:46:57;20.20;99.90
20977;DHT22;10647;51.016;3.720;2022-09-24T12:49:31;20.00;99.90
20977;DHT22;10647;51.016;3.720;2022-09-24T12:54:38;19.80;99.90
20977;DHT22;10647;51.016;3.720;2022-09-24T12:57:14;19.60;99.90
20977;DHT22;10647;51.016;3.720;2022-09-24T12:59:51;19.50;99.90
20977;DHT22;10647;51.016;3.720;2022-09-24T13:10:59;19.10;99.90
20977;DHT22;10647;51.016;3.720;2022-09-24T13:13:36;19.00;99.90
20977;DHT22;10647;51.016;3.720;2022-09-24T13:16:13;18.90;99.90
20977;DHT22;10647;51.016;3.720;2022-09-24T13:18:35;18.90;99.90
20977;DHT22;10647;51.016;3.720;2022-09-24T13:21:06;18.80;99.90
20977;DHT22;10647;51.016;3.720;2022-09-24T13:23:43;18.90;99.90
20977;DHT22;10647;51.016;3.720;2022-09-24T13:26:26;18.90;99.90
20977;DHT22;10647;51.016;3.720;2022-09-24T13:29:04;18.90;99.90
20977;DHT22;10647;51.016;3.720;2022-09-24T13:31:49;19.00;99.90
20977;DHT22;10647;51.016;3.720;2022-09-24T13:36:53;18.90;99.90
20977;DHT22;10647;51.016;3.720;2022-09-24T13:39:43;19.00;99.90
20977;DHT22;10647;51.016;3.720;2022-09-24T13:42:37;19.10;99.90
20977;DHT22;10647;51.016;3.720;2022-09-24T13:45:13;19.10;99.90
20977;DHT22;10647;51.016;3.720;2022-09-24T13:48:03;19.00;99.90
20977;DHT22;10647;51.016;3.720;2022-09-24T13:50:37;19.00;99.90
20977;DHT22;10647;51.016;3.720;2022-09-24T13:55:45;19.00;99.90
20977;DHT22;10647;51.016;3.720;2022-09-24T13:58:34;19.00;99.90
20977;DHT22;10647;51.016;3.720;2022-09-24T14:01:01;18.90;99.90
20977;DHT22;10647;51.016;3.720;2022-09-24T14:03:31;19.00;99.90
20977;DHT22;10647;51.016;3.720;2022-09-24T14:06:01;19.20;99.90
20977;DHT22;10647;51.016;3.720;2022-09-24T14:08:30;19.40;99.90
20977;DHT22;10647;51.016;3.720;2022-09-24T14:11:17;19.50;99.90
20977;DHT22;10647;51.016;3.720;2022-09-24T14:13:35;19.50;99.90
20977;DHT22;10647;51.016;3.720;2022-09-24T14:16:17;19.50;99.90
20977;DHT22;10647;51.016;3.720;2022-09-24T14:18:41;19.70;99.90
20977;DHT22;10647;51.016;3.720;2022-09-24T14:21:29;19.80;99.90
20977;DHT22;10647;51.016;3.720;2022-09-24T14:24:03;19.80;99.90
20977;DHT22;10647;51.016;3.720;2022-09-24T14:26:40;19.70;99.90
20977;DHT22;10647;51.016;3.720;2022-09-24T14:29:07;19.50;99.90
20977;DHT22;10647;51.016;3.720;2022-09-24T14:31:42;19.40;99.90
20977;DHT22;10647;51.016;3.720;2022-09-24T14:34:32;19.30;99.90
20977;DHT22;10647;51.016;3.720;2022-09-24T14:37:11;19.40;99.90
20977;DHT22;10647;51.016;3.720;2022-09-24T14:39:40;19.60;99.90
20977;DHT22;10647;51.016;3.720;2022-09-24T14:42:12;19.80;99.90
20977;DHT22;10647;51.016;3.720;2022-09-24T14:44:41;19.80;99.90
20977;DHT22;10647;51.016;3.720;2022-09-24T14:47:25;19.60;99.90
20977;DHT22;10647;51.016;3.720;2022-09-24T14:49:54;19.50;99.90
20977;DHT22;10647;51.016;3.720;2022-09-24T14:52:30;19.50;99.90
20977;DHT22;10647;51.016;3.720;2022-09-24T14:55:11;19.40;99.90
20977;DHT22;10647;51.016;3.720;2022-09-24T14:57:42;19.60;99.90
20977;DHT22;10647;51.016;3.720;2022-09-24T15:00:25;19.70;99.90
20977;DHT22;10647;51.016;3.720;2022-09-24T15:03:00;19.70;99.90
20977;DHT22;10647;51.016;3.720;2022-09-24T15:05:47;19.90;99.90
20977;DHT22;10647;51.016;3.720;2022-09-24T15:08:27;20.10;99.90
20977;DHT22;10647;51.016;3.720;2022-09-24T15:11:03;20.20;99.90
20977;DHT22;10647;51.016;3.720;2022-09-24T15:13:38;20.20;99.90
20977;DHT22;10647;51.016;3.720;2022-09-24T15:18:46;20.40;99.90
20977;DHT22;10647;51.016;3.720;2022-09-24T15:21:19;20.30;99.90
20977;DHT22;10647;51.016;3.720;2022-09-24T15:23:46;20.20;99.90
20977;DHT22;10647;51.016;3.720;2022-09-24T15:26:14;20.20;99.90
20977;DHT22;10647;51.016;3.720;2022-09-24T15:28:42;20.10;99.90
20977;DHT22;10647;51.016;3.720;2022-09-24T15:31:10;20.10;99.90
20977;DHT22;10647;51.016;3.720;2022-09-24T15:33:37;20.00;99.90
20977;DHT22;10647;51.016;3.720;2022-09-24T15:36:08;19.70;99.90
20977;DHT22;10647;51.016;3.720;2022-09-24T15:38:36;19.50;99.90
20977;DHT22;10647;51.016;3.720;2022-09-24T15:41:05;19.40;99.90
20977;DHT22;10647;51.016;3.720;2022-09-24T15:43:37;19.40;99.90
20977;DHT22;10647;51.016;3.720;2022-09-24T15:46:06;19.40;99.90
20977;DHT22;10647;51.016;3.720;2022-09-24T15:48:33;19.40;99.90
20977;DHT22;10647;51.016;3.720;2022-09-24T15:51:02;19.40;99.90
20977;DHT22;10647;51.016;3.720;2022-09-24T15:53:30;19.30;99.90
20977;DHT22;10647;51.016;3.720;2022-09-24T15:56:00;19.20;99.90
20977;DHT22;10647;51.016;3.720;2022-09-24T15:58:29;19.10;99.90
20977;DHT22;10647;51.016;3.720;2022-09-24T16:00:59;19.00;99.90
20977;DHT22;10647;51.016;3.720;2022-09-24T16:03:30;19.00;99.90
20977;DHT22;10647;51.016;3.720;2022-09-24T16:05:59;19.10;99.90
20977;DHT22;10647;51.016;3.720;2022-09-24T16:08:27;19.10;99.90
20977;DHT22;10647;51.016;3.720;2022-09-24T16:10:55;19.10;99.90
20977;DHT22;10647;51.016;3.720;2022-09-24T16:13:23;19.10;99.90
20977;DHT22;10647;51.016;3.720;2022-09-24T16:15:53;19.10;99.90
20977;DHT22;10647;51.016;3.720;2022-09-24T16:18:20;19.10;99.90
20977;DHT22;10647;51.016;3.720;2022-09-24T16:20:49;19.00;99.90
20977;DHT22;10647;51.016;3.720;2022-09-24T16:23:17;19.00;99.90
20977;DHT22;10647;51.016;3.720;2022-09-24T16:25:56;19.10;99.90
20977;DHT22;10647;51.016;3.720;2022-09-24T16:28:28;19.20;99.90
20977;DHT22;10647;51.016;3.720;2022-09-24T16:30:55;19.20;99.90
20977;DHT22;10647;51.016;3.720;2022-09-24T16:33:24;19.10;99.90
20977;DHT22;10647;51.016;3.720;2022-09-24T16:35:51;19.10;99.90
20977;DHT22;10647;51.016;3.720;2022-09-24T16:38:19;19.10;99.90
20977;DHT22;10647;51.016;3.720;2022-09-24T16:40:47;19.00;99.90
20977;DHT22;10647;51.016;3.720;2022-09-24T16:43:19;18.90;99.90
20977;DHT22;10647;51.016;3.720;2022-09-24T16:45:46;18.90;99.90
20977;DHT22;10647;51.016;3.720;2022-09-24T16:48:14;18.90;99.90
20977;DHT22;10647;51.016;3.720;2022-09-24T16:50:42;18.90;99.90
20977;DHT22;10647;51.016;3.720;2022-09-24T16:53:10;18.90;99.90
20977;DHT22;10647;51.016;3.720;2022-09-24T16:55:38;18.70;99.90
20977;DHT22;10647;51.016;3.720;2022-09-24T16:58:05;18.70;99.90
20977;DHT22;10647;51.016;3.720;2022-09-24T17:00:33;18.70;99.90
20977;DHT22;10647;51.016;3.720;2022-09-24T17:03:00;18.80;99.90
20977;DHT22;10647;51.016;3.720;2022-09-24T17:05:28;18.50;99.90
20977;DHT22;10647;51.016;3.720;2022-09-24T17:07:58;18.50;99.90
20977;DHT22;10647;51.016;3.720;2022-09-24T17:10:26;18.40;99.90
20977;DHT22;10647;51.016;3.720;2022-09-24T17:12:53;18.40;99.90
20977;DHT22;10647;51.016;3.720;2022-09-24T17:15:21;18.30;99.90
20977;DHT22;10647;51.016;3.720;2022-09-24T17:17:48;18.30;99.90
20977;DHT22;10647;51.016;3.720;2022-09-24T17:20:17;18.20;99.90
20977;DHT22;10647;51.016;3.720;2022-09-24T17:22:45;18.20;99.90
20977;DHT22;10647;51.016;3.720;2022-09-24T17:25:15;18.10;99.90
20977;DHT22;10647;51.016;3.720;2022-09-24T17:27:42;18.10;99.90
20977;DHT22;10647;51.016;3.720;2022-09-24T17:30:10;18.00;99.90
20977;DHT22;10647;51.016;3.720;2022-09-24T17:32:38;17.90;99.90
20977;DHT22;10647;51.016;3.720;2022-09-24T17:35:06;17.60;99.90
20977;DHT22;10647;51.016;3.720;2022-09-24T17:37:34;17.80;99.90
20977;DHT22;10647;51.016;3.720;2022-09-24T17:40:02;17.60;99.90
20977;DHT22;10647;51.016;3.720;2022-09-24T17:42:30;17.60;99.90